createdAt,value
2022-10-25T00:01:17.049Z,100710.00
2022-10-25T00:03:45.698Z,100708.31
2022-10-25T00:06:14.880Z,100703.91
2022-10-25T00:08:43.539Z,100702.19
2022-10-25T00:11:19.807Z,100697.88
2022-10-25T00:13:51.487Z,100711.16
2022-10-25T00:16:23.066Z,100716.53
2022-10-25T00:18:52.044Z,100723.63
2022-10-25T00:21:21.085Z,100720.16
2022-10-25T00:23:49.797Z,100707.91
2022-10-25T00:26:18.674Z,100719.41
2022-10-25T00:28:47.484Z,100716.81
2022-10-25T00:31:18.750Z,100722.19
2022-10-25T00:33:47.547Z,100714.38
2022-10-25T00:36:19.225Z,100712.69
2022-10-25T00:38:48.137Z,100710.16
2022-10-25T00:41:19.239Z,100711.97
2022-10-25T00:43:49.788Z,100713.84
2022-10-25T00:46:26.360Z,100722.75
2022-10-25T00:48:59.985Z,100715.75
2022-10-25T00:51:35.705Z,100726.38
2022-10-25T00:54:04.373Z,100724.69
2022-10-25T00:56:39.016Z,100732.66
2022-10-25T00:59:13.407Z,100733.66
2022-10-25T01:01:43.508Z,100746.91
2022-10-25T01:04:16.523Z,100738.28
2022-10-25T01:06:50.223Z,100742.78
2022-10-25T01:09:23.197Z,100748.16
2022-10-25T01:11:51.821Z,100745.63
2022-10-25T01:14:20.559Z,100747.53
2022-10-25T01:16:58.932Z,100750.28
2022-10-25T01:19:53.771Z,100751.34
2022-10-25T01:22:31.415Z,100755.00
2022-10-25T01:25:29.299Z,100752.56
2022-10-25T01:28:08.316Z,100759.69
2022-10-25T01:31:18.665Z,100749.34
2022-10-25T01:33:56.479Z,100743.31
2022-10-25T01:36:38.193Z,100746.09
2022-10-25T01:39:13.351Z,100742.66
2022-10-25T01:41:52.107Z,100734.84
2022-10-25T01:44:37.969Z,100735.88
2022-10-25T01:47:14.777Z,100735.06
2022-10-25T01:49:49.072Z,100743.03
2022-10-25T01:52:21.892Z,100743.13
2022-10-25T01:54:50.920Z,100744.94
2022-10-25T01:57:48.816Z,100743.31
2022-10-25T02:00:20.199Z,100752.97
2022-10-25T02:03:07.388Z,100749.53
2022-10-25T02:05:47.085Z,100747.00
2022-10-25T02:08:28.959Z,100744.44
2022-10-25T02:11:07.585Z,100752.38
2022-10-25T02:13:52.340Z,100759.47
2022-10-25T02:16:27.299Z,100756.88
2022-10-25T02:19:02.115Z,100756.97
2022-10-25T02:21:33.455Z,100747.47
2022-10-25T02:24:07.715Z,100757.31
2022-10-25T02:26:37.747Z,100761.81
2022-10-25T02:29:08.081Z,100760.19
2022-10-25T02:31:38.620Z,100760.28
2022-10-25T02:34:08.173Z,100753.28
2022-10-25T02:36:36.654Z,100749.75
2022-10-25T02:39:08.072Z,100754.13
2022-10-25T02:41:36.648Z,100748.00
2022-10-25T02:44:05.310Z,100751.56
2022-10-25T02:46:33.577Z,100745.44
2022-10-25T02:49:02.071Z,100749.84
2022-10-25T02:51:31.911Z,100753.34
2022-10-25T02:54:00.323Z,100745.53
2022-10-25T02:56:28.703Z,100742.94
2022-10-25T02:58:58.799Z,100747.34
2022-10-25T03:01:27.644Z,100746.47
2022-10-25T03:03:56.303Z,100748.25
2022-10-25T03:06:24.867Z,100750.03
2022-10-25T03:08:54.461Z,100742.13
2022-10-25T03:11:22.720Z,100744.78
2022-10-25T03:13:51.208Z,100739.63
2022-10-25T03:16:19.783Z,100746.69
2022-10-25T03:18:48.351Z,100759.88
2022-10-25T03:21:16.901Z,100753.75
2022-10-25T03:23:45.396Z,100760.81
2022-10-25T03:26:14.967Z,100762.66
2022-10-25T03:28:43.555Z,100765.28
2022-10-25T03:31:13.706Z,100754.78
2022-10-25T03:33:42.379Z,100757.47
2022-10-25T03:36:11.450Z,100762.75
2022-10-25T03:38:40.162Z,100754.88
2022-10-25T03:41:08.638Z,100762.75
2022-10-25T03:43:38.162Z,100760.13
2022-10-25T03:46:06.819Z,100773.25
2022-10-25T03:48:35.364Z,100774.19
2022-10-25T03:51:03.891Z,100771.56
2022-10-25T03:53:32.339Z,100775.13
2022-10-25T03:56:00.796Z,100762.91
2022-10-25T03:58:29.289Z,100769.03
2022-10-25T04:01:00.018Z,100769.94
2022-10-25T04:03:28.937Z,100771.75
2022-10-25T04:05:57.490Z,100770.03
2022-10-25T04:08:26.119Z,100773.56
2022-10-25T04:10:54.682Z,100771.81
2022-10-25T04:13:25.171Z,100772.75
2022-10-25T04:15:53.715Z,100771.91
2022-10-25T04:18:23.351Z,100779.00
2022-10-25T04:20:51.871Z,100771.13
2022-10-25T04:23:21.226Z,100779.03
2022-10-25T04:25:49.774Z,100778.16
2022-10-25T04:28:18.290Z,100779.94
2022-10-25T04:30:46.536Z,100780.78
2022-10-25T04:33:15.042Z,100775.53
2022-10-25T04:35:44.621Z,100775.53
2022-10-25T04:38:13.198Z,100780.69
2022-10-25T04:40:41.740Z,100781.53
2022-10-25T04:43:09.953Z,100785.88
2022-10-25T04:45:38.642Z,100789.28
2022-10-25T04:48:07.348Z,100789.16
2022-10-25T04:50:35.596Z,100790.88
2022-10-25T04:53:06.160Z,100783.84
2022-10-25T04:55:34.665Z,100778.56
2022-10-25T04:58:03.145Z,100794.34
2022-10-25T05:00:31.741Z,100785.56
2022-10-25T05:03:00.294Z,100787.34
2022-10-25T05:05:28.996Z,100790.88
2022-10-25T05:07:57.524Z,100786.53
2022-10-25T05:10:27.149Z,100790.88
2022-10-25T05:12:55.998Z,100789.16
2022-10-25T05:15:24.703Z,100793.53
2022-10-25T05:17:53.177Z,100792.69
2022-10-25T05:20:21.657Z,100797.06
2022-10-25T05:22:50.050Z,100802.34
2022-10-25T05:25:18.793Z,100800.53
2022-10-25T05:27:48.323Z,100802.25
2022-10-25T05:30:16.864Z,100795.19
2022-10-25T05:32:45.580Z,100806.56
2022-10-25T05:35:14.364Z,100810.03
2022-10-25T05:37:42.548Z,100806.47
2022-10-25T05:40:12.678Z,100816.09
2022-10-25T05:42:41.180Z,100816.06
2022-10-25T05:45:11.698Z,100812.50
2022-10-25T05:47:40.182Z,100814.19
2022-10-25T05:50:09.123Z,100816.81
2022-10-25T05:52:37.454Z,100825.53
2022-10-25T05:55:06.914Z,100822.00
2022-10-25T05:57:35.645Z,100820.22
2022-10-25T06:00:05.387Z,100822.78
2022-10-25T06:02:35.803Z,100830.63
2022-10-25T06:05:04.124Z,100841.16
2022-10-25T06:07:32.982Z,100828.88
2022-10-25T06:10:01.512Z,100838.47
2022-10-25T06:12:30.016Z,100842.81
2022-10-25T06:14:58.754Z,100840.16
2022-10-25T06:17:27.250Z,100847.91
2022-10-25T06:19:56.886Z,100840.84
2022-10-25T06:22:25.476Z,100842.56
2022-10-25T06:24:53.949Z,100846.94
2022-10-25T06:27:22.396Z,100843.41
2022-10-25T06:29:50.567Z,100850.44
2022-10-25T06:32:19.068Z,100849.47
2022-10-25T06:34:47.552Z,100854.66
2022-10-25T06:37:17.104Z,100861.53
2022-10-25T06:39:45.596Z,100870.19
2022-10-25T06:42:14.144Z,100862.91
2022-10-25T06:44:42.789Z,100866.19
2022-10-25T06:47:17.295Z,100873.03
2022-10-25T06:49:47.056Z,100876.38
2022-10-25T06:52:16.580Z,100886.72
2022-10-25T06:54:45.057Z,100879.56
2022-10-25T06:57:13.397Z,100897.06
2022-10-25T06:59:41.914Z,100900.34
2022-10-25T07:02:10.918Z,100902.63
2022-10-25T07:04:39.549Z,100906.63
2022-10-25T07:07:08.131Z,100899.22
2022-10-25T07:09:37.660Z,100908.53
2022-10-25T07:12:11.465Z,100904.94
2022-10-25T07:14:41.096Z,100903.16
2022-10-25T07:17:09.614Z,100903.16
2022-10-25T07:19:38.152Z,100906.34
2022-10-25T07:22:06.398Z,100910.00
2022-10-25T07:24:35.061Z,100917.59
2022-10-25T07:27:04.970Z,100915.75
2022-10-25T07:29:33.464Z,100919.16
2022-10-25T07:32:01.995Z,100918.78
2022-10-25T07:34:30.663Z,100920.16
2022-10-25T07:36:59.140Z,100920.66
2022-10-25T07:39:27.623Z,100918.41
2022-10-25T07:41:56.187Z,100923.56
2022-10-25T07:44:25.863Z,100914.59
2022-10-25T07:46:55.475Z,100920.31
2022-10-25T07:49:23.675Z,100913.59
2022-10-25T07:51:51.860Z,100915.00
2022-10-25T07:54:20.102Z,100907.50
2022-10-25T07:56:48.583Z,100906.28
2022-10-25T07:59:17.149Z,100904.31
2022-10-25T08:01:46.776Z,100906.97
2022-10-25T08:04:15.411Z,100908.81
2022-10-25T08:06:43.643Z,100908.88
2022-10-25T08:09:20.279Z,100905.19
2022-10-25T08:12:00.364Z,100918.03
2022-10-25T08:14:28.615Z,100915.56
2022-10-25T08:16:58.167Z,100916.88
2022-10-25T08:19:26.624Z,100922.28
2022-10-25T08:21:55.190Z,100917.13
2022-10-25T08:24:23.396Z,100913.97
2022-10-25T08:26:51.575Z,100919.03
2022-10-25T08:29:19.823Z,100924.66
2022-10-25T08:31:48.086Z,100929.84
2022-10-25T08:34:17.680Z,100925.28
2022-10-25T08:36:45.880Z,100936.63
2022-10-25T08:39:14.033Z,100929.09
2022-10-25T08:41:52.053Z,100940.84
2022-10-25T08:44:35.528Z,100946.41
2022-10-25T08:47:08.592Z,100942.16
2022-10-25T08:49:52.220Z,100941.56
2022-10-25T08:52:27.728Z,100951.50
2022-10-25T08:55:01.731Z,100936.53
2022-10-25T08:57:35.775Z,100928.53
2022-10-25T09:00:11.881Z,100942.41
2022-10-25T09:02:49.386Z,100941.41
2022-10-25T09:05:37.439Z,100937.88
2022-10-25T09:08:27.641Z,100944.91
2022-10-25T09:11:06.219Z,100948.34
2022-10-25T09:13:49.892Z,100951.63
2022-10-25T09:16:20.238Z,100961.81
2022-10-25T09:18:51.990Z,100943.03
2022-10-25T09:21:27.409Z,100943.94
2022-10-25T09:24:00.829Z,100950.19
2022-10-25T09:26:42.245Z,100949.84
2022-10-25T09:29:24.472Z,100946.34
2022-10-25T09:31:58.787Z,100953.47
2022-10-25T09:34:32.944Z,100955.09
2022-10-25T09:37:17.689Z,100950.25
2022-10-25T09:39:50.306Z,100954.25
2022-10-25T09:42:26.115Z,100951.31
2022-10-25T09:44:59.599Z,100941.84
2022-10-25T09:47:40.223Z,100938.56
2022-10-25T09:50:16.907Z,100941.41
2022-10-25T09:55:40.580Z,100951.97
2022-10-25T09:58:17.845Z,100961.97
2022-10-25T10:00:46.280Z,100956.72
2022-10-25T10:03:15.952Z,100966.16
2022-10-25T10:05:51.924Z,100964.97
2022-10-25T10:08:21.776Z,100965.03
2022-10-25T10:10:51.817Z,100969.13
2022-10-25T10:13:30.271Z,100961.13
2022-10-25T10:16:01.062Z,100966.97
2022-10-25T10:18:32.077Z,100959.47
2022-10-25T10:21:13.992Z,100965.97
2022-10-25T10:23:53.055Z,100967.38
2022-10-25T10:26:28.170Z,100969.59
2022-10-25T10:29:14.113Z,100975.50
2022-10-25T10:31:50.824Z,100979.91
2022-10-25T10:34:27.037Z,100972.63
2022-10-25T10:37:08.775Z,100974.78
2022-10-25T10:39:50.558Z,100967.13
2022-10-25T10:42:21.898Z,100975.22
2022-10-25T10:45:17.636Z,100971.91
2022-10-25T10:47:56.553Z,100975.72
2022-10-25T10:50:28.707Z,100969.84
2022-10-25T10:53:01.014Z,100972.63
2022-10-25T10:55:34.530Z,100973.44
2022-10-25T10:58:06.627Z,100968.00
2022-10-25T11:00:35.888Z,100958.19
2022-10-25T11:03:04.482Z,100957.09
2022-10-25T11:05:35.523Z,100957.66
2022-10-25T11:08:18.698Z,100958.38
2022-10-25T11:10:48.385Z,100955.72
2022-10-25T11:13:18.815Z,100951.41
2022-10-25T11:16:20.264Z,100960.53
2022-10-25T11:19:15.945Z,100966.91
2022-10-25T11:22:06.732Z,100966.13
2022-10-25T11:24:46.329Z,100959.09
2022-10-25T11:27:25.047Z,100961.84
2022-10-25T11:30:14.069Z,100968.03
2022-10-25T11:33:22.540Z,100963.53
2022-10-25T11:36:06.943Z,100966.91
2022-10-25T11:38:58.146Z,100962.09
2022-10-25T11:41:43.095Z,100960.81
2022-10-25T11:44:41.701Z,100963.97
2022-10-25T11:47:21.539Z,100958.50
2022-10-25T11:50:04.783Z,100964.53
2022-10-25T11:53:04.042Z,100962.53
2022-10-25T11:55:40.173Z,100957.31
2022-10-25T11:58:26.160Z,100957.28
2022-10-25T12:01:07.933Z,100965.09
2022-10-25T12:03:59.963Z,100969.47
2022-10-25T12:06:41.655Z,100960.38
2022-10-25T12:09:24.271Z,100951.53
2022-10-25T12:12:00.953Z,100947.41
2022-10-25T12:14:35.027Z,100953.75
2022-10-25T12:17:08.763Z,100943.19
2022-10-25T12:19:46.214Z,100941.91
2022-10-25T12:22:21.151Z,100939.06
2022-10-25T12:24:57.371Z,100938.31
2022-10-25T12:27:27.551Z,100941.38
2022-10-25T12:29:59.315Z,100941.88
2022-10-25T12:32:45.486Z,100937.25
2022-10-25T12:35:22.792Z,100939.09
2022-10-25T12:37:58.816Z,100933.09
2022-10-25T12:40:29.575Z,100934.91
2022-10-25T12:43:06.760Z,100936.06
2022-10-25T12:46:06.407Z,100922.97
2022-10-25T12:49:08.264Z,100922.91
2022-10-25T12:52:20.036Z,100916.34
2022-10-25T12:55:27.266Z,100922.03
2022-10-25T12:58:21.946Z,100922.47
2022-10-25T13:01:15.693Z,100915.53
2022-10-25T13:04:32.772Z,100913.38
2022-10-25T13:07:04.085Z,100915.25
2022-10-25T13:09:35.862Z,100917.66
2022-10-25T13:12:08.538Z,100904.19
2022-10-25T13:14:39.707Z,100908.66
2022-10-25T13:18:00.789Z,100909.22
2022-10-25T13:20:52.992Z,100905.63
2022-10-25T13:23:59.709Z,100907.97
2022-10-25T13:27:15.201Z,100920.84
2022-10-25T13:30:13.134Z,100901.50
2022-10-25T13:32:43.082Z,100903.88
2022-10-25T13:35:59.943Z,100903.91
2022-10-25T13:38:33.224Z,100893.03
2022-10-25T13:41:12.033Z,100905.03
2022-10-25T13:44:00.392Z,100904.13
2022-10-25T13:46:36.395Z,100898.56
2022-10-25T13:49:27.299Z,100885.19
2022-10-25T13:51:58.905Z,100885.25
2022-10-25T13:54:47.161Z,100881.88
2022-10-25T13:57:51.315Z,100886.84
2022-10-25T14:00:41.560Z,100883.19
2022-10-25T14:03:36.112Z,100880.41
2022-10-25T14:06:23.735Z,100878.69
2022-10-25T14:09:20.712Z,100884.78
2022-10-25T14:11:53.053Z,100880.63
2022-10-25T14:14:29.538Z,100885.28
2022-10-25T14:17:15.928Z,100885.25
2022-10-25T14:19:49.252Z,100881.47
2022-10-25T14:22:21.398Z,100879.97
2022-10-25T14:24:53.968Z,100873.34
2022-10-25T14:27:31.629Z,100867.84
2022-10-25T14:30:31.247Z,100870.72
2022-10-25T14:33:03.634Z,100878.31
2022-10-25T14:35:35.347Z,100877.16
2022-10-25T14:38:15.296Z,100876.56
2022-10-25T14:40:52.893Z,100878.69
2022-10-25T14:43:30.801Z,100885.91
2022-10-25T14:46:13.188Z,100876.97
2022-10-25T14:48:42.648Z,100873.38
2022-10-25T14:51:22.119Z,100879.63
2022-10-25T14:53:58.667Z,100874.59
2022-10-25T14:56:33.531Z,100869.72
2022-10-25T14:59:03.663Z,100868.28
2022-10-25T15:01:31.982Z,100866.09
2022-10-25T15:04:02.003Z,100866.47
2022-10-25T15:06:32.769Z,100868.66
2022-10-25T15:12:18.016Z,100867.75
2022-10-25T15:14:48.225Z,100864.66
2022-10-25T15:17:26.544Z,100860.47
2022-10-25T15:20:24.900Z,100867.56
2022-10-25T15:23:01.648Z,100870.16
2022-10-25T15:25:33.807Z,100866.53
2022-10-25T15:28:13.015Z,100857.81
2022-10-25T15:30:57.772Z,100857.97
2022-10-25T15:33:30.136Z,100858.31
2022-10-25T15:36:01.319Z,100862.28
2022-10-25T15:38:47.970Z,100856.66
2022-10-25T15:41:19.754Z,100862.56
2022-10-25T15:43:49.378Z,100864.81
2022-10-25T15:46:29.340Z,100857.34
2022-10-25T15:48:59.594Z,100856.16
2022-10-25T15:51:30.953Z,100856.69
2022-10-25T15:53:59.648Z,100859.88
2022-10-25T15:56:29.037Z,100850.63
2022-10-25T15:59:01.335Z,100856.28
2022-10-25T16:01:29.758Z,100850.44
2022-10-25T16:03:58.348Z,100857.88
2022-10-25T16:06:26.939Z,100850.41
2022-10-25T16:08:55.466Z,100850.91
2022-10-25T16:11:23.933Z,100847.97
2022-10-25T16:13:54.035Z,100848.63
2022-10-25T16:16:42.297Z,100848.41
2022-10-25T16:19:15.593Z,100851.59
2022-10-25T16:21:44.573Z,100855.63
2022-10-25T16:24:13.554Z,100855.22
2022-10-25T16:26:45.319Z,100852.13
2022-10-25T16:29:17.621Z,100846.25
2022-10-25T16:31:47.473Z,100848.44
2022-10-25T16:34:17.267Z,100847.94
2022-10-25T16:36:46.014Z,100848.31
2022-10-25T16:39:14.590Z,100846.06
2022-10-25T16:41:45.207Z,100846.34
2022-10-25T16:44:16.652Z,100844.28
2022-10-25T16:46:46.828Z,100838.56
2022-10-25T16:49:15.352Z,100844.34
2022-10-25T16:51:44.210Z,100842.19
2022-10-25T16:54:15.223Z,100840.06
2022-10-25T16:56:44.087Z,100840.47
2022-10-25T16:59:12.567Z,100834.72
2022-10-25T17:01:44.550Z,100827.16
2022-10-25T17:04:15.711Z,100820.38
2022-10-25T17:06:44.253Z,100818.16
2022-10-25T17:09:13.016Z,100822.03
2022-10-25T17:11:41.640Z,100819.69
2022-10-25T17:14:10.527Z,100832.34
2022-10-25T17:16:44.370Z,100830.91
2022-10-25T17:19:14.345Z,100829.50
2022-10-25T17:21:42.558Z,100820.16
2022-10-25T17:24:10.781Z,100826.63
2022-10-25T17:26:39.985Z,100824.22
2022-10-25T17:29:08.484Z,100822.78
2022-10-25T17:31:37.096Z,100818.69
2022-10-25T17:34:05.765Z,100815.34
2022-10-25T17:36:35.369Z,100822.59
2022-10-25T17:39:04.255Z,100814.09
2022-10-25T17:41:32.777Z,100809.91
2022-10-25T17:44:01.305Z,100812.75
2022-10-25T17:46:32.360Z,100812.91
2022-10-25T17:49:05.629Z,100809.59
2022-10-25T17:51:36.458Z,100811.59
2022-10-25T17:54:04.972Z,100804.69
2022-10-25T17:56:33.471Z,100797.81
2022-10-25T17:59:04.376Z,100797.09
2022-10-25T18:01:36.087Z,100798.19
2022-10-25T18:04:05.174Z,100796.59
2022-10-25T18:06:34.830Z,100799.44
2022-10-25T18:09:04.683Z,100799.63
2022-10-25T18:11:33.332Z,100799.81
2022-10-25T18:14:02.919Z,100797.28
2022-10-25T18:16:31.934Z,100809.72
2022-10-25T18:19:02.005Z,100808.03
2022-10-25T18:21:31.764Z,100811.84
2022-10-25T18:24:04.835Z,100812.09
2022-10-25T18:26:34.378Z,100811.38
2022-10-25T18:29:02.875Z,100808.06
2022-10-25T18:31:31.487Z,100808.25
2022-10-25T18:34:03.333Z,100812.78
2022-10-25T18:36:32.641Z,100816.41
2022-10-25T18:39:02.196Z,100813.88
2022-10-25T18:41:33.709Z,100813.22
2022-10-25T18:44:03.346Z,100812.53
2022-10-25T18:46:32.729Z,100818.84
2022-10-25T18:49:01.648Z,100809.28
2022-10-25T18:51:31.864Z,100809.34
2022-10-25T18:54:03.564Z,100815.59
2022-10-25T18:56:32.858Z,100814.78
2022-10-25T18:59:01.273Z,100810.44
2022-10-25T19:01:32.715Z,100813.09
2022-10-25T19:04:02.544Z,100814.06
2022-10-25T19:06:31.300Z,100805.41
2022-10-25T19:09:02.841Z,100811.63
2022-10-25T19:11:32.704Z,100817.00
2022-10-25T19:14:01.363Z,100808.28
2022-10-25T19:16:29.850Z,100803.97
2022-10-25T19:18:58.011Z,100805.03
2022-10-25T19:21:26.487Z,100804.28
2022-10-25T19:23:55.135Z,100806.13
2022-10-25T19:26:24.720Z,100795.69
2022-10-25T19:28:58.492Z,100800.16
2022-10-25T19:31:28.534Z,100798.47
2022-10-25T19:34:00.213Z,100802.88
2022-10-25T19:36:29.063Z,100804.69
2022-10-25T19:38:57.751Z,100798.69
2022-10-25T19:41:27.989Z,100803.09
2022-10-25T19:43:57.300Z,100804.91
2022-10-25T19:46:26.321Z,100807.63
2022-10-25T19:48:56.198Z,100807.66
2022-10-25T19:51:24.696Z,100799.00
2022-10-25T19:53:53.307Z,100793.84
2022-10-25T19:56:23.447Z,100802.69
2022-10-25T19:58:53.050Z,100799.22
2022-10-25T20:01:24.095Z,100794.00
2022-10-25T20:03:55.627Z,100786.13
2022-10-25T20:06:27.011Z,100789.69
2022-10-25T20:08:57.249Z,100787.97
2022-10-25T20:11:27.099Z,100786.25
2022-10-25T20:13:59.127Z,100780.97
2022-10-25T20:16:28.841Z,100785.38
2022-10-25T20:18:57.726Z,100791.56
2022-10-25T20:21:30.738Z,100791.59
2022-10-25T20:24:01.625Z,100796.09
2022-10-25T20:26:31.781Z,100789.94
2022-10-25T20:29:05.895Z,100787.28
2022-10-25T20:31:35.511Z,100783.03
2022-10-25T20:34:05.171Z,100775.13
2022-10-25T20:36:33.734Z,100779.56
2022-10-25T20:39:02.404Z,100776.06
2022-10-25T20:41:31.905Z,100779.66
2022-10-25T20:44:03.737Z,100777.94
2022-10-25T20:46:33.720Z,100778.03
2022-10-25T20:49:03.333Z,100779.78
2022-10-25T20:51:31.568Z,100777.16
2022-10-25T20:54:00.080Z,100766.69
2022-10-25T20:56:29.142Z,100768.47
2022-10-25T20:58:57.618Z,100767.59
2022-10-25T21:01:27.254Z,100765.88
2022-10-25T21:03:55.920Z,100759.75
2022-10-25T21:06:24.652Z,100757.16
2022-10-25T21:08:53.179Z,100755.44
2022-10-25T21:11:21.423Z,100751.09
2022-10-25T21:13:49.883Z,100746.72
2022-10-25T21:16:18.472Z,100755.56
2022-10-25T21:18:48.046Z,100751.22
2022-10-25T21:21:19.974Z,100749.44
2022-10-25T21:23:49.261Z,100747.72
2022-10-25T21:26:18.036Z,100743.34
2022-10-25T21:28:46.573Z,100742.50
2022-10-25T21:31:16.718Z,100746.81
2022-10-25T21:33:51.150Z,100741.56
2022-10-25T21:36:21.295Z,100742.38
2022-10-25T21:38:50.184Z,100742.38
2022-10-25T21:41:23.211Z,100745.94
2022-10-25T21:43:51.879Z,100746.72
2022-10-25T21:46:21.990Z,100741.47
2022-10-25T21:48:52.148Z,100744.06
2022-10-25T21:51:21.994Z,100734.38
2022-10-25T21:53:50.215Z,100734.28
2022-10-25T21:56:20.516Z,100734.28
2022-10-25T21:58:50.780Z,100736.00
2022-10-25T22:01:21.853Z,100743.00
2022-10-25T22:03:52.201Z,100744.72
2022-10-25T22:06:27.152Z,100739.56
2022-10-25T22:08:56.430Z,100742.28
2022-10-25T22:11:26.616Z,100743.13
2022-10-25T22:14:00.330Z,100735.31
2022-10-25T22:16:30.259Z,100735.31
2022-10-25T22:19:02.947Z,100731.75
2022-10-25T22:21:33.606Z,100740.47
2022-10-25T22:24:02.123Z,100733.47
2022-10-25T22:26:30.812Z,100734.38
2022-10-25T22:29:00.427Z,100739.56
2022-10-25T22:31:31.032Z,100733.34
2022-10-25T22:34:02.738Z,100727.19
2022-10-25T22:36:34.486Z,100723.66
2022-10-25T22:39:03.573Z,100714.81
2022-10-25T22:41:32.076Z,100716.56
2022-10-25T22:44:01.308Z,100707.75
2022-10-25T22:46:32.251Z,100703.34
2022-10-25T22:49:06.766Z,100710.34
2022-10-25T22:51:35.527Z,100712.97
2022-10-25T22:54:04.069Z,100706.03
2022-10-25T22:56:33.249Z,100707.84
2022-10-25T22:59:03.736Z,100715.81
2022-10-25T23:01:33.633Z,100718.38
2022-10-25T23:04:05.980Z,100713.13
2022-10-25T23:06:37.660Z,100706.94
2022-10-25T23:09:08.986Z,100707.75
2022-10-25T23:11:39.437Z,100717.34
2022-10-25T23:14:13.324Z,100709.47
2022-10-25T23:16:45.660Z,100708.56
2022-10-25T23:19:15.378Z,100714.63
2022-10-25T23:21:43.673Z,100712.81
2022-10-25T23:24:12.229Z,100714.53
2022-10-25T23:26:40.820Z,100703.09
2022-10-25T23:29:11.753Z,100700.38
2022-10-25T23:31:40.026Z,100700.34
2022-10-25T23:34:08.658Z,100697.66
2022-10-25T23:36:38.267Z,100710.78
2022-10-25T23:39:09.049Z,100709.06
2022-10-25T23:41:37.782Z,100706.47
2022-10-25T23:44:06.177Z,100698.63
2022-10-25T23:46:34.464Z,100688.09
2022-10-25T23:49:02.632Z,100686.25
2022-10-25T23:51:31.218Z,100683.63
2022-10-25T23:54:00.765Z,100686.25
2022-10-25T23:56:28.987Z,100683.63
2022-10-25T23:58:57.203Z,100684.44
